Port Allegany, Pennsylvania
Current Conditions -  °F | °C
As of 3:53 AM on Saturday 20 Dec 2014 (Local Time) from KBFD Reporting Station
Overcast Overcast  
Wind Chill: 14°   Ceiling: 1000
Heat Index: 22°   Visibility: 8mi
Dew Point: 17°   Wind: 6mph
Humidity: 82%   Direction: 270°W
Pressure: 30.16"   Gusts: NA
Location:  41.81°N, 78.28°W
Report Text: KBFD 200853Z AUTO 27005KT 8SM OVC010 M06/M08 A3016 RMK AO2 SLP242 T10561083 53008
Loading
Personal Weather Stations






























Interactive Weather Map New forecast layout! Learn more

10-Day Weather Forecast

Advertisements
Track Severe Weather on mobile